Granville, Indiana
Current Conditions -  °F | °C
As of 4:53 PM on Friday 24 Oct 2014 (Local Time) from KMIE Reporting Station
Clear Clear  
Wind Chill: 64°   Ceiling: Unl
Heat Index: 64°   Visibility: 10mi
Dew Point: 46°   Wind: 7mph
Humidity: 52%   Direction: 230°SW
Pressure: 30.01"   Gusts: NA
Location:  40.3453°N, 85.3353°W
Report Text: KMIE 242053Z 23006KT 10SM CLR 18/08 A3001 RMK AO2 SLP161 T01780078 56017
Loading
Personal Weather Stations






























Interactive Weather Map New forecast layout! Learn more

10-Day Weather Forecast

Advertisements
Track Severe Weather on mobile